Time;durP1;ratioP1;P1;durP2;ratioP2;P2;SDS_P1;SDS_P2;PMS_P1;PMS_P2;Temp;Humidity;BMP_temperature;BMP_pressure;BME280_temperature;BME280_humidity;BME280_pressure;Samples;Min_cycle;Max_cycle;Signal;HPM_P1;HPM_P2
2022/03/27 00:01:15;;;;;;;;;;;5.80;99.90;;;;;;4883341;29;19923;-85
2022/03/27 00:03:41;;;;;;;;;;;5.70;99.90;;;;;;4901003;29;19927;-85
2022/03/27 00:06:06;;;;;;;;;;;5.80;99.90;;;;;;4900795;29;19923;-85
2022/03/27 00:08:32;;;;;;;;;;;5.80;99.90;;;;;;4883203;29;19930;-85
2022/03/27 00:13:41;;;;;;;;;;;5.90;99.90;;;;;;4883953;29;20459;-85
2022/03/27 00:16:09;;;;;;;;;;;5.90;99.90;;;;;;4883410;29;20014;-85
2022/03/27 00:18:35;;;;;;;;;;;5.90;99.90;;;;;;4883688;29;19927;-85
2022/03/27 00:21:00;;;;;;;;;;;6.00;99.90;;;;;;4883669;29;19923;-86
2022/03/27 00:23:26;;;;;;;;;;;6.00;99.90;;;;;;4882645;29;19971;-86
2022/03/27 00:25:51;;;;;;;;;;;5.90;99.90;;;;;;4883960;29;19928;-86
2022/03/27 00:28:17;;;;;;;;;;;5.90;99.90;;;;;;4900548;29;19923;-86
2022/03/27 00:30:43;;;;;;;;;;;5.90;99.90;;;;;;4899823;29;20268;-86
2022/03/27 00:33:08;;;;;;;;;;;6.00;99.90;;;;;;4900795;29;20009;-86
2022/03/27 00:35:33;;;;;;;;;;;5.90;99.90;;;;;;4899694;29;20383;-86
2022/03/27 00:37:59;;;;;;;;;;;6.00;99.90;;;;;;4900411;29;19930;-86
2022/03/27 00:40:24;;;;;;;;;;;6.00;99.90;;;;;;4900148;29;20014;-86
2022/03/27 00:42:50;;;;;;;;;;;5.90;99.90;;;;;;4899263;29;19933;-85
2022/03/27 00:45:15;;;;;;;;;;;6.00;99.90;;;;;;4883241;29;20402;-86
2022/03/27 00:47:43;;;;;;;;;;;6.00;99.90;;;;;;4899984;29;20006;-86
2022/03/27 00:50:09;;;;;;;;;;;5.90;99.90;;;;;;4899582;29;19931;-85
2022/03/27 00:52:34;;;;;;;;;;;6.00;99.90;;;;;;4900508;29;19946;-86
2022/03/27 00:55:00;;;;;;;;;;;6.00;99.90;;;;;;4883203;29;19924;-85
2022/03/27 00:57:26;;;;;;;;;;;6.00;99.90;;;;;;4898427;29;19974;-86
2022/03/27 00:59:51;;;;;;;;;;;6.00;99.90;;;;;;4883510;29;20358;-86
2022/03/27 01:02:20;;;;;;;;;;;6.00;99.90;;;;;;4899810;29;20007;-86
2022/03/27 01:04:45;;;;;;;;;;;6.00;99.90;;;;;;4882336;29;20380;-86
2022/03/27 01:07:12;;;;;;;;;;;6.00;99.90;;;;;;4882834;29;19934;-86
2022/03/27 01:09:39;;;;;;;;;;;6.00;99.90;;;;;;4882928;29;19923;-85
2022/03/27 01:12:17;;;;;;;;;;;6.00;99.90;;;;;;4898786;29;19982;-86
2022/03/27 01:14:44;;;;;;;;;;;6.00;99.90;;;;;;4882835;29;20438;-86
2022/03/27 01:17:10;;;;;;;;;;;6.00;99.90;;;;;;4882789;29;19923;-85
2022/03/27 01:19:41;;;;;;;;;;;6.00;99.90;;;;;;4882482;29;19963;-85
2022/03/27 01:22:06;;;;;;;;;;;6.00;99.90;;;;;;4899836;29;19993;-85
2022/03/27 01:24:32;;;;;;;;;;;6.00;99.90;;;;;;4882476;29;20386;-85
2022/03/27 01:26:57;;;;;;;;;;;5.90;99.90;;;;;;4899185;29;20022;-85
2022/03/27 01:29:23;;;;;;;;;;;5.90;99.90;;;;;;4882680;29;20013;-85
2022/03/27 01:31:51;;;;;;;;;;;5.80;99.90;;;;;;4882312;29;19986;-85
2022/03/27 01:34:17;;;;;;;;;;;5.90;99.90;;;;;;4899537;29;19979;-85
2022/03/27 01:36:42;;;;;;;;;;;5.80;99.90;;;;;;4899400;29;19923;-85
2022/03/27 01:39:12;;;;;;;;;;;5.70;99.90;;;;;;4898943;29;19931;-85
2022/03/27 01:41:38;;;;;;;;;;;5.70;99.90;;;;;;4899154;29;19995;-86
2022/03/27 01:44:04;;;;;;;;;;;5.60;99.90;;;;;;4899209;29;19975;-85
2022/03/27 01:46:31;;;;;;;;;;;5.50;99.90;;;;;;4898139;29;20497;-85
2022/03/27 01:48:57;;;;;;;;;;;5.40;99.90;;;;;;4882173;29;19927;-85
2022/03/27 01:51:22;;;;;;;;;;;5.40;99.90;;;;;;4898871;29;19923;-85
2022/03/27 01:53:48;;;;;;;;;;;5.30;99.90;;;;;;4898789;29;19923;-85
2022/03/27 01:56:13;;;;;;;;;;;5.20;99.90;;;;;;4899183;29;20331;-85
2022/03/27 01:58:39;;;;;;;;;;;5.20;99.90;;;;;;4899156;29;20022;-86
2022/03/27 02:01:06;;;;;;;;;;;5.10;99.90;;;;;;4881579;29;19930;-85
2022/03/27 02:03:31;;;;;;;;;;;5.10;99.90;;;;;;4881116;29;19931;-85
2022/03/27 02:05:57;;;;;;;;;;;5.00;99.90;;;;;;4881785;29;19923;-85
2022/03/27 02:08:23;;;;;;;;;;;4.90;99.90;;;;;;4896835;29;19974;-85
2022/03/27 02:10:49;;;;;;;;;;;4.90;99.90;;;;;;4882064;29;19930;-85
2022/03/27 02:13:18;;;;;;;;;;;4.80;99.90;;;;;;4881791;29;20018;-85
2022/03/27 02:15:45;;;;;;;;;;;4.70;99.90;;;;;;4881322;29;20257;-85
2022/03/27 02:18:11;;;;;;;;;;;4.80;99.90;;;;;;4881691;29;19924;-85
2022/03/27 02:20:36;;;;;;;;;;;4.70;99.90;;;;;;4881958;29;20379;-86
2022/03/27 02:23:02;;;;;;;;;;;4.70;99.90;;;;;;4880497;29;20387;-85
2022/03/27 02:25:28;;;;;;;;;;;4.60;99.90;;;;;;4898040;29;19923;-85
2022/03/27 02:27:53;;;;;;;;;;;4.60;99.90;;;;;;4881653;29;19924;-85
2022/03/27 02:30:20;;;;;;;;;;;4.60;99.90;;;;;;4896495;29;19923;-85
2022/03/27 02:32:46;;;;;;;;;;;4.60;99.90;;;;;;4898702;29;19923;-85
2022/03/27 02:35:12;;;;;;;;;;;4.60;99.90;;;;;;4897378;29;19923;-85
2022/03/27 02:37:38;;;;;;;;;;;4.60;99.90;;;;;;4898386;29;19923;-85
2022/03/27 02:40:04;;;;;;;;;;;4.60;99.90;;;;;;4897310;29;20009;-85
2022/03/27 02:42:30;;;;;;;;;;;4.50;99.90;;;;;;4880637;29;19980;-85
2022/03/27 02:44:55;;;;;;;;;;;4.50;99.90;;;;;;4881406;29;20375;-85
2022/03/27 02:47:21;;;;;;;;;;;4.40;99.90;;;;;;4896773;29;20387;-85
2022/03/27 02:49:46;;;;;;;;;;;4.50;99.90;;;;;;4897277;29;19930;-85
2022/03/27 02:52:11;;;;;;;;;;;4.40;99.90;;;;;;4897023;29;19923;-85
2022/03/27 02:54:38;;;;;;;;;;;4.40;99.90;;;;;;4898324;29;20006;-85
2022/03/27 02:57:03;;;;;;;;;;;4.40;99.90;;;;;;4897354;29;20380;-85
2022/03/27 02:59:29;;;;;;;;;;;4.40;99.90;;;;;;4898149;29;19979;-85
2022/03/27 03:01:55;;;;;;;;;;;4.40;99.90;;;;;;4898307;29;20380;-85
2022/03/27 03:04:20;;;;;;;;;;;4.40;99.90;;;;;;4897147;29;19923;-85
2022/03/27 03:06:46;;;;;;;;;;;4.30;99.90;;;;;;4897071;29;20371;-86
2022/03/27 03:09:12;;;;;;;;;;;4.40;99.90;;;;;;4897951;29;19927;-85
2022/03/27 03:11:37;;;;;;;;;;;4.40;99.90;;;;;;4896161;29;19930;-85
2022/03/27 03:14:03;;;;;;;;;;;4.30;99.90;;;;;;4896838;29;20375;-85
2022/03/27 03:16:29;;;;;;;;;;;4.30;99.90;;;;;;4897755;29;19923;-85
2022/03/27 03:18:54;;;;;;;;;;;4.30;99.90;;;;;;4896037;29;19924;-85
2022/03/27 03:21:21;;;;;;;;;;;4.20;99.90;;;;;;4901401;29;19946;-85
2022/03/27 03:23:46;;;;;;;;;;;4.30;99.90;;;;;;4900747;29;20025;-86
2022/03/27 03:26:12;;;;;;;;;;;4.30;99.90;;;;;;4900886;29;20442;-86
2022/03/27 03:28:37;;;;;;;;;;;4.30;99.90;;;;;;4900405;29;19924;-86
2022/03/27 03:31:03;;;;;;;;;;;4.20;99.90;;;;;;4901618;29;20328;-86
2022/03/27 03:33:29;;;;;;;;;;;4.10;99.90;;;;;;4899301;29;19952;-87
2022/03/27 03:35:54;;;;;;;;;;;4.20;99.90;;;;;;4901512;29;19930;-86
2022/03/27 03:38:20;;;;;;;;;;;4.10;99.90;;;;;;4900704;29;19931;-85
2022/03/27 03:40:45;;;;;;;;;;;4.20;99.90;;;;;;4901678;29;20356;-86
2022/03/27 03:43:11;;;;;;;;;;;4.10;99.90;;;;;;4901230;29;19928;-86
2022/03/27 03:45:37;;;;;;;;;;;4.10;99.90;;;;;;4899485;29;19923;-86
2022/03/27 03:48:04;;;;;;;;;;;4.10;99.90;;;;;;4901254;29;19971;-86
2022/03/27 03:50:30;;;;;;;;;;;5.20;99.90;;;;;;4901132;29;19927;-86
2022/03/27 03:52:56;;;;;;;;;;;4.10;99.90;;;;;;4900564;29;19935;-86
2022/03/27 03:55:21;;;;;;;;;;;4.10;99.90;;;;;;4901206;29;19928;-86
2022/03/27 03:57:47;;;;;;;;;;;4.40;99.90;;;;;;4900964;29;19924;-86
2022/03/27 04:00:13;;;;;;;;;;;4.10;99.90;;;;;;4901838;29;19923;-85
2022/03/27 04:02:38;;;;;;;;;;;4.00;99.90;;;;;;4882767;29;19927;-84
2022/03/27 04:05:05;;;;;;;;;;;4.00;99.90;;;;;;4899818;29;19946;-85
2022/03/27 04:07:31;;;;;;;;;;;3.90;99.90;;;;;;4899971;29;20284;-85
2022/03/27 04:09:57;;;;;;;;;;;3.90;99.90;;;;;;4884070;29;19920;-86
2022/03/27 04:12:22;;;;;;;;;;;3.90;99.90;;;;;;4899712;29;19923;-86
2022/03/27 04:14:47;;;;;;;;;;;3.80;99.90;;;;;;4899050;29;19970;-86
2022/03/27 04:17:13;;;;;;;;;;;3.80;99.90;;;;;;4899674;29;19923;-86
2022/03/27 04:19:40;;;;;;;;;;;3.90;99.90;;;;;;4899948;29;19923;-86
2022/03/27 04:22:06;;;;;;;;;;;3.90;99.90;;;;;;4900999;29;19926;-86
2022/03/27 04:24:32;;;;;;;;;;;3.90;99.90;;;;;;4899330;29;19927;-86
2022/03/27 04:26:58;;;;;;;;;;;3.90;99.90;;;;;;4900554;29;20324;-86
2022/03/27 04:29:32;;;;;;;;;;;4.00;99.90;;;;;;4899618;29;20395;-86
2022/03/27 04:31:57;;;;;;;;;;;3.80;99.90;;;;;;4899238;29;20014;-86
2022/03/27 04:34:23;;;;;;;;;;;4.00;99.90;;;;;;4899314;29;19923;-86
2022/03/27 04:36:49;;;;;;;;;;;4.70;99.90;;;;;;4898896;29;19924;-86
2022/03/27 04:39:27;;;;;;;;;;;4.90;99.90;;;;;;4883472;29;20018;-86
2022/03/27 04:41:52;;;;;;;;;;;3.90;99.90;;;;;;4898367;29;20447;-86
2022/03/27 04:44:17;;;;;;;;;;;3.80;99.90;;;;;;4898696;29;19936;-85
2022/03/27 04:46:43;;;;;;;;;;;3.90;99.90;;;;;;4899338;29;19978;-85
2022/03/27 04:49:09;;;;;;;;;;;3.90;99.90;;;;;;4899528;29;19927;-86
2022/03/27 04:51:34;;;;;;;;;;;3.90;99.90;;;;;;4898687;29;19978;-86
2022/03/27 04:54:00;;;;;;;;;;;3.80;99.90;;;;;;4899210;29;20284;-86
2022/03/27 04:56:25;;;;;;;;;;;3.80;99.90;;;;;;4899529;29;19924;-86
2022/03/27 04:58:51;;;;;;;;;;;3.80;99.90;;;;;;4898816;29;19927;-86
2022/03/27 05:01:17;;;;;;;;;;;3.80;99.90;;;;;;4898678;29;20264;-86
2022/03/27 05:03:42;;;;;;;;;;;3.80;99.90;;;;;;4898216;29;19923;-86
2022/03/27 05:06:08;;;;;;;;;;;3.70;99.90;;;;;;4899281;29;19950;-86
2022/03/27 05:08:34;;;;;;;;;;;3.70;99.90;;;;;;4898739;29;19995;-86
2022/03/27 05:10:59;;;;;;;;;;;3.70;99.90;;;;;;4897748;29;19924;-86
2022/03/27 05:13:26;;;;;;;;;;;3.80;99.90;;;;;;4898169;29;20022;-86
2022/03/27 05:15:51;;;;;;;;;;;3.80;99.90;;;;;;4898827;29;20323;-86
2022/03/27 05:18:17;;;;;;;;;;;3.70;99.90;;;;;;4897746;29;20019;-86
2022/03/27 05:20:43;;;;;;;;;;;3.80;99.90;;;;;;4899760;29;19924;-86
2022/03/27 05:23:08;;;;;;;;;;;4.50;99.90;;;;;;4898695;29;19928;-86
2022/03/27 05:25:40;;;;;;;;;;;3.90;99.90;;;;;;4881832;29;19987;-86
2022/03/27 05:28:07;;;;;;;;;;;4.30;99.90;;;;;;4899675;29;19923;-86
2022/03/27 05:30:32;;;;;;;;;;;3.90;99.90;;;;;;4899422;29;19966;-86
2022/03/27 05:32:58;;;;;;;;;;;3.90;99.90;;;;;;4899061;29;19923;-85
2022/03/27 05:35:42;;;;;;;;;;;3.90;99.90;;;;;;4903460;29;19924;-93
2022/03/27 05:38:19;;;;;;;;;;;4.50;99.90;;;;;;4911303;29;19924;-94
2022/03/27 05:41:21;;;;;;;;;;;4.10;99.90;;;;;;4914588;29;19930;-95
2022/03/27 05:43:46;;;;;;;;;;;4.10;99.90;;;;;;4902352;29;19923;-87
2022/03/27 05:46:38;;;;;;;;;;;4.00;99.90;;;;;;4891008;29;19923;-94
2022/03/27 05:51:35;;;;;;;;;;;4.30;99.90;;;;;;4930838;23;20361;-91
2022/03/27 05:54:06;;;;;;;;;;;4.40;99.90;;;;;;4941694;23;20309;-93
2022/03/27 05:56:38;;;;;;;;;;;5.00;99.90;;;;;;4920768;29;19923;-92
2022/03/27 05:59:14;;;;;;;;;;;4.60;99.90;;;;;;4921148;29;19969;-94
2022/03/27 06:01:46;;;;;;;;;;;4.70;99.90;;;;;;4921743;29;20322;-90
2022/03/27 06:04:24;;;;;;;;;;;4.60;99.90;;;;;;4939694;29;19922;-90
2022/03/27 06:06:55;;;;;;;;;;;4.70;99.90;;;;;;4925810;29;20017;-90
2022/03/27 06:09:24;;;;;;;;;;;4.80;99.90;;;;;;4919522;29;19926;-90
2022/03/27 06:11:55;;;;;;;;;;;4.80;99.90;;;;;;4920065;29;19922;-89
2022/03/27 06:14:30;;;;;;;;;;;4.20;99.90;;;;;;4918896;29;20327;-90
2022/03/27 06:17:05;;;;;;;;;;;4.30;99.90;;;;;;4936910;29;19926;-90
2022/03/27 06:19:43;;;;;;;;;;;5.00;99.90;;;;;;4936208;29;20038;-89
2022/03/27 06:22:21;;;;;;;;;;;4.90;99.90;;;;;;4937675;29;19934;-89
2022/03/27 06:24:55;;;;;;;;;;;5.00;99.90;;;;;;4936395;29;20014;-90
2022/03/27 06:27:27;;;;;;;;;;;5.40;99.90;;;;;;4935170;29;20370;-88
2022/03/27 06:30:05;;;;;;;;;;;5.20;99.90;;;;;;4919052;29;19918;-91
2022/03/27 06:32:30;;;;;;;;;;;5.20;99.90;;;;;;4919671;29;19974;-93
2022/03/27 06:34:59;;;;;;;;;;;5.10;99.90;;;;;;4935963;29;19922;-93
2022/03/27 06:37:40;;;;;;;;;;;5.30;99.90;;;;;;4937117;29;19929;-91
2022/03/27 06:40:10;;;;;;;;;;;5.20;99.90;;;;;;4920275;29;20284;-92
2022/03/27 06:42:44;;;;;;;;;;;5.30;99.90;;;;;;4919307;29;19945;-91
2022/03/27 06:45:49;;;;;;;;;;;5.40;99.90;;;;;;4914011;23;20022;-94
2022/03/27 06:51:26;;;;;;;;;;;6.30;99.90;;;;;;4941171;23;19922;-93
2022/03/27 06:54:32;;;;;;;;;;;4.80;99.90;;;;;;4936049;29;19966;-92
2022/03/27 06:57:33;;;;;;;;;;;5.60;99.90;;;;;;4936717;29;19923;-92
2022/03/27 07:03:09;;;;;;;;;;;5.90;99.90;;;;;;4919795;29;20010;-92
2022/03/27 07:06:14;;;;;;;;;;;6.10;99.90;;;;;;4921932;29;19923;-95
2022/03/27 07:08:41;;;;;;;;;;;5.80;99.90;;;;;;4933352;29;20013;-89
2022/03/27 07:11:13;;;;;;;;;;;6.40;99.90;;;;;;4933897;28;19923;-90
2022/03/27 07:13:54;;;;;;;;;;;6.10;99.90;;;;;;4942587;28;19976;-90
2022/03/27 07:18:54;;;;;;;;;;;5.50;99.90;;;;;;4949685;23;19923;-91
2022/03/27 07:21:30;;;;;;;;;;;6.20;99.90;;;;;;4920276;23;19974;-90
2022/03/27 07:24:33;;;;;;;;;;;6.30;99.90;;;;;;4903736;29;20406;-90
2022/03/27 07:27:39;;;;;;;;;;;6.20;99.90;;;;;;4900405;29;20401;-90
2022/03/27 07:30:32;;;;;;;;;;;6.70;99.90;;;;;;4916983;29;19987;-91
2022/03/27 07:36:14;;;;;;;;;;;5.70;99.90;;;;;;4918118;29;19926;-91
2022/03/27 07:38:51;;;;;;;;;;;6.20;99.90;;;;;;4917995;29;19978;-90
2022/03/27 07:41:17;;;;;;;;;;;6.30;99.90;;;;;;4934854;23;19962;-91
2022/03/27 07:44:17;;;;;;;;;;;7.10;99.90;;;;;;4919083;29;20000;-92
2022/03/27 07:46:42;;;;;;;;;;;6.10;99.90;;;;;;4918161;29;19929;-91
2022/03/27 07:49:18;;;;;;;;;;;6.30;99.90;;;;;;4938549;29;20087;-92
2022/03/27 07:52:05;;;;;;;;;;;6.40;99.90;;;;;;4934946;29;19922;-91
2022/03/27 07:54:49;;;;;;;;;;;6.60;99.90;;;;;;4927908;23;19931;-91
2022/03/27 07:57:14;;;;;;;;;;;6.70;99.90;;;;;;4880542;29;19930;-92
2022/03/27 08:00:01;;;;;;;;;;;6.80;99.90;;;;;;4909689;29;19919;-89
2022/03/27 08:02:42;;;;;;;;;;;7.70;99.90;;;;;;4905094;29;19973;-91
2022/03/27 08:05:27;;;;;;;;;;;7.00;99.90;;;;;;4900174;29;19927;-93
2022/03/27 08:08:36;;;;;;;;;;;6.40;99.90;;;;;;4919740;29;19923;-92
2022/03/27 08:11:23;;;;;;;;;;;7.00;99.90;;;;;;4883674;29;19949;-91
2022/03/27 08:14:03;;;;;;;;;;;6.80;99.90;;;;;;4907344;29;19923;-90
2022/03/27 08:16:40;;;;;;;;;;;7.20;99.90;;;;;;4898452;29;19931;-92
2022/03/27 08:19:06;;;;;;;;;;;7.50;99.90;;;;;;4898473;29;19927;-89
2022/03/27 08:21:43;;;;;;;;;;;8.30;99.90;;;;;;4909171;29;20002;-90
2022/03/27 08:24:23;;;;;;;;;;;7.70;99.90;;;;;;4918576;29;19933;-88
2022/03/27 08:27:02;;;;;;;;;;;7.50;99.90;;;;;;4901604;29;19991;-87
2022/03/27 08:29:35;;;;;;;;;;;7.60;99.90;;;;;;4918944;29;19923;-87
2022/03/27 08:32:05;;;;;;;;;;;7.60;99.90;;;;;;4918344;29;19946;-87
2022/03/27 08:34:44;;;;;;;;;;;7.80;99.90;;;;;;4918519;29;19931;-87
2022/03/27 08:37:25;;;;;;;;;;;7.90;99.90;;;;;;4919174;29;20314;-86
2022/03/27 08:39:58;;;;;;;;;;;7.90;99.90;;;;;;4919354;29;20043;-87
2022/03/27 08:42:39;;;;;;;;;;;7.90;99.90;;;;;;4918325;29;19977;-86
2022/03/27 08:45:13;;;;;;;;;;;8.50;99.90;;;;;;4919236;29;19923;-86
2022/03/27 08:47:51;;;;;;;;;;;7.50;99.90;;;;;;4919058;29;20291;-89
2022/03/27 08:50:29;;;;;;;;;;;8.20;99.90;;;;;;4902005;29;19923;-91
2022/03/27 08:52:57;;;;;;;;;;;8.50;99.90;;;;;;4917281;29;19919;-90
2022/03/27 08:55:38;;;;;;;;;;;8.80;99.90;;;;;;4900303;29;19929;-90
2022/03/27 08:58:11;;;;;;;;;;;8.30;99.90;;;;;;4917765;29;19927;-89
2022/03/27 09:00:51;;;;;;;;;;;8.40;99.90;;;;;;4901825;29;19930;-90
2022/03/27 09:03:19;;;;;;;;;;;8.40;99.90;;;;;;4907636;23;19958;-93
2022/03/27 09:12:07;;;;;;;;;;;8.10;99.90;;;;;;5378548;23;20025;-91
2022/03/27 09:14:36;;;;;;;;;;;8.50;99.90;;;;;;4920174;29;19923;-90
2022/03/27 09:17:43;;;;;;;;;;;8.10;99.90;;;;;;4928116;29;19922;-90
2022/03/27 09:20:12;;;;;;;;;;;9.20;99.90;;;;;;4896691;29;20319;-90
2022/03/27 09:22:51;;;;;;;;;;;8.50;99.90;;;;;;4881173;29;19923;-90
2022/03/27 09:25:26;;;;;;;;;;;8.80;99.90;;;;;;4895606;29;19956;-90
2022/03/27 09:30:36;;;;;;;;;;;9.00;99.90;;;;;;4950418;23;19923;-89
2022/03/27 09:33:02;;;;;;;;;;;8.80;99.90;;;;;;4917487;29;19923;-91
2022/03/27 09:36:08;;;;;;;;;;;9.20;99.90;;;;;;4934409;23;20036;-91
2022/03/27 09:38:34;;;;;;;;;;;8.70;99.90;;;;;;4897334;29;20320;-92
2022/03/27 09:41:04;;;;;;;;;;;9.20;99.90;;;;;;4900745;29;19923;-85
2022/03/27 09:43:30;;;;;;;;;;;9.00;99.90;;;;;;4925481;23;19962;-89
2022/03/27 09:45:58;;;;;;;;;;;9.10;99.90;;;;;;4901152;29;19958;-91
2022/03/27 09:48:32;;;;;;;;;;;9.40;99.90;;;;;;4907707;23;19930;-89
2022/03/27 09:54:13;;;;;;;;;;;9.50;99.90;;;;;;4936081;29;19962;-86
2022/03/27 09:56:54;;;;;;;;;;;9.60;99.90;;;;;;4920040;29;19974;-89
2022/03/27 09:59:26;;;;;;;;;;;9.80;99.90;;;;;;4937919;29;19919;-89
2022/03/27 10:02:21;;;;;;;;;;;9.80;99.90;;;;;;4937904;29;19966;-92
2022/03/27 10:04:57;;;;;;;;;;;10.60;99.90;;;;;;4936527;29;20363;-88
2022/03/27 10:07:36;;;;;;;;;;;10.10;99.90;;;;;;4923259;23;19922;-87
2022/03/27 10:13:33;;;;;;;;;;;10.40;99.90;;;;;;4877649;29;19923;-88
2022/03/27 10:16:05;;;;;;;;;;;10.50;99.90;;;;;;4880855;29;20009;-89
2022/03/27 10:18:40;;;;;;;;;;;10.70;99.90;;;;;;4914577;23;20018;-88
2022/03/27 10:25:09;;;;;;;;;;;;;;;;;;;;;
2022/03/27 10:28:22;;;;;;;;;;;11.20;99.90;;;;;;4915659;29;19929;-88
2022/03/27 10:31:15;;;;;;;;;;;11.60;99.90;;;;;;4916800;29;19923;-87
2022/03/27 10:33:42;;;;;;;;;;;11.60;99.90;;;;;;4899439;29;20412;-88
2022/03/27 10:36:57;;;;;;;;;;;11.50;99.90;;;;;;4916439;29;19979;-89
2022/03/27 10:39:28;;;;;;;;;;;11.70;99.90;;;;;;4899922;29;19927;-88
2022/03/27 10:42:19;;;;;;;;;;;11.80;99.90;;;;;;4916218;29;19919;-88
2022/03/27 10:44:53;;;;;;;;;;;12.70;99.90;;;;;;4877874;29;19997;-88
2022/03/27 10:47:25;;;;;;;;;;;12.40;99.90;;;;;;4898967;29;19975;-87
2022/03/27 10:50:05;;;;;;;;;;;12.30;99.90;;;;;;4899709;29;19927;-88
2022/03/27 10:52:33;;;;;;;;;;;12.50;99.90;;;;;;4899863;29;20383;-87
2022/03/27 10:55:02;;;;;;;;;;;12.50;99.90;;;;;;4899936;29;20022;-88
2022/03/27 10:57:37;;;;;;;;;;;12.70;99.90;;;;;;4900396;29;19927;-88
2022/03/27 11:00:09;;;;;;;;;;;12.70;99.90;;;;;;4916958;29;19979;-88
2022/03/27 11:02:45;;;;;;;;;;;12.80;99.90;;;;;;4915819;29;19939;-89
2022/03/27 11:05:30;;;;;;;;;;;12.20;99.90;;;;;;4916531;29;20302;-88
2022/03/27 11:08:14;;;;;;;;;;;12.90;99.90;;;;;;4916972;29;19931;-87
2022/03/27 11:10:40;;;;;;;;;;;13.20;99.90;;;;;;4915936;29;20420;-85
2022/03/27 11:13:25;;;;;;;;;;;14.30;99.90;;;;;;4899591;29;19996;-85
2022/03/27 11:16:09;;;;;;;;;;;13.40;99.90;;;;;;4898801;29;19934;-86
2022/03/27 11:18:35;;;;;;;;;;;13.50;99.90;;;;;;4916349;29;19919;-84
2022/03/27 11:21:07;;;;;;;;;;;13.50;99.90;;;;;;4918194;29;19934;-88
2022/03/27 11:23:35;;;;;;;;;;;13.60;99.90;;;;;;4899471;29;19930;-88
2022/03/27 11:26:02;;;;;;;;;;;13.70;99.90;;;;;;4916179;29;19974;-87
2022/03/27 11:28:44;;;;;;;;;;;13.70;99.90;;;;;;4916020;29;19923;-86
2022/03/27 11:31:24;;;;;;;;;;;14.00;99.90;;;;;;4898973;29;19923;-87
2022/03/27 11:34:05;;;;;;;;;;;14.40;99.90;;;;;;4916756;29;20013;-86
2022/03/27 11:36:34;;;;;;;;;;;14.50;99.90;;;;;;4915842;29;19931;-89
2022/03/27 11:39:08;;;;;;;;;;;14.70;99.90;;;;;;4899350;29;19988;-88
2022/03/27 11:41:44;;;;;;;;;;;13.60;99.90;;;;;;4902037;29;20418;-87
2022/03/27 11:44:16;;;;;;;;;;;14.40;99.90;;;;;;4918371;29;19923;-85
2022/03/27 11:46:52;;;;;;;;;;;14.70;99.90;;;;;;4902359;29;19938;-86
2022/03/27 11:49:35;;;;;;;;;;;14.80;99.90;;;;;;4918607;29;19919;-85
2022/03/27 11:52:21;;;;;;;;;;;14.50;99.90;;;;;;4918440;29;20233;-85
2022/03/27 11:54:47;;;;;;;;;;;14.60;99.90;;;;;;4919075;29;19930;-84
2022/03/27 11:57:18;;;;;;;;;;;14.10;99.90;;;;;;4918690;29;20403;-84
2022/03/27 11:59:50;;;;;;;;;;;15.50;99.90;;;;;;4901223;29;19923;-84
2022/03/27 12:02:18;;;;;;;;;;;15.10;99.90;;;;;;4918650;29;20450;-84
2022/03/27 12:04:51;;;;;;;;;;;16.00;99.90;;;;;;4918355;29;19937;-84
2022/03/27 12:07:17;;;;;;;;;;;15.50;99.90;;;;;;4919011;29;20358;-84
2022/03/27 12:09:55;;;;;;;;;;;15.40;99.90;;;;;;4919287;29;19974;-84
2022/03/27 12:12:21;;;;;;;;;;;15.40;99.90;;;;;;4918156;29;20375;-84
2022/03/27 12:15:13;;;;;;;;;;;15.60;99.90;;;;;;4919940;29;19919;-84
2022/03/27 12:17:51;;;;;;;;;;;15.30;99.90;;;;;;4919459;29;20276;-84
2022/03/27 12:20:16;;;;;;;;;;;15.60;99.90;;;;;;4918583;29;19923;-84
2022/03/27 12:22:43;;;;;;;;;;;16.00;99.90;;;;;;4902362;29;20386;-84
2022/03/27 12:25:18;;;;;;;;;;;15.90;99.90;;;;;;4918817;29;19982;-84
2022/03/27 12:30:47;;;;;;;;;;;15.60;99.90;;;;;;4902106;29;19923;-84
2022/03/27 12:33:13;;;;;;;;;;;16.30;99.90;;;;;;4901011;29;20283;-84
2022/03/27 12:35:39;;;;;;;;;;;16.30;99.90;;;;;;4902122;29;19947;-84
2022/03/27 12:38:04;;;;;;;;;;;16.30;99.90;;;;;;4901100;29;19923;-85
2022/03/27 12:40:48;;;;;;;;;;;16.10;99.90;;;;;;4900972;29;20041;-88
2022/03/27 12:43:32;;;;;;;;;;;16.10;99.90;;;;;;4902199;29;20503;-88
2022/03/27 12:46:17;;;;;;;;;;;16.10;99.90;;;;;;4918626;29;20303;-88
2022/03/27 12:48:43;;;;;;;;;;;16.20;99.90;;;;;;4918474;29;20001;-88
2022/03/27 12:51:19;;;;;;;;;;;16.30;99.90;;;;;;4918598;29;19970;-88
2022/03/27 12:54:03;;;;;;;;;;;16.50;99.90;;;;;;4918772;29;19989;-87
2022/03/27 12:56:29;;;;;;;;;;;16.60;99.90;;;;;;4900197;29;19931;-88
2022/03/27 12:58:58;;;;;;;;;;;17.90;99.90;;;;;;4918199;29;19919;-88
2022/03/27 13:01:34;;;;;;;;;;;16.80;99.90;;;;;;4917884;29;19983;-89
2022/03/27 13:04:09;;;;;;;;;;;16.80;99.90;;;;;;4918452;29;20335;-88
2022/03/27 13:06:59;;;;;;;;;;;16.70;99.90;;;;;;4901453;29;19930;-88
2022/03/27 13:09:27;;;;;;;;;;;16.90;99.90;;;;;;4965952;23;20021;-88
2022/03/27 13:11:55;;;;;;;;;;;16.40;99.20;;;;;;4920382;29;20381;-88
2022/03/27 13:14:42;;;;;;;;;;;17.10;99.60;;;;;;4919025;29;19924;-90
2022/03/27 13:17:20;;;;;;;;;;;17.00;99.90;;;;;;4920032;29;20256;-89
2022/03/27 13:19:52;;;;;;;;;;;17.00;99.90;;;;;;4937270;29;19923;-88
2022/03/27 13:22:29;;;;;;;;;;;17.10;99.30;;;;;;4924599;23;19923;-89
2022/03/27 13:25:39;;;;;;;;;;;17.00;99.10;;;;;;4918263;29;19930;-87
2022/03/27 13:28:51;;;;;;;;;;;16.80;99.90;;;;;;4921522;29;19930;-89
2022/03/27 13:31:42;;;;;;;;;;;16.90;99.90;;;;;;4916613;29;19923;-88
2022/03/27 13:34:08;;;;;;;;;;;17.10;99.90;;;;;;4918104;29;19970;-89
2022/03/27 13:36:44;;;;;;;;;;;17.30;98.70;;;;;;4917306;29;20001;-88
2022/03/27 13:39:13;;;;;;;;;;;17.20;98.70;;;;;;4918291;29;20013;-89
2022/03/27 13:44:55;;;;;;;;;;;17.30;98.60;;;;;;4917030;29;20264;-88
2022/03/27 13:47:23;;;;;;;;;;;17.40;99.10;;;;;;4900019;29;20295;-89
2022/03/27 13:50:05;;;;;;;;;;;17.50;99.30;;;;;;4917274;29;20327;-89
2022/03/27 13:52:34;;;;;;;;;;;17.70;99.10;;;;;;4914325;29;20383;-89
2022/03/27 13:55:17;;;;;;;;;;;17.90;99.90;;;;;;4917685;29;19950;-88
2022/03/27 13:57:52;;;;;;;;;;;17.80;97.70;;;;;;4916941;29;19934;-89
2022/03/27 14:00:26;;;;;;;;;;;17.70;99.60;;;;;;4917914;29;19923;-88
2022/03/27 14:03:09;;;;;;;;;;;17.40;98.60;;;;;;4899331;29;20379;-89
2022/03/27 14:05:41;;;;;;;;;;;17.50;97.80;;;;;;4916537;29;20018;-89
2022/03/27 14:08:13;;;;;;;;;;;17.70;97.00;;;;;;4917641;29;19927;-89
2022/03/27 14:10:41;;;;;;;;;;;17.70;99.00;;;;;;4900731;29;19923;-89
2022/03/27 14:13:12;;;;;;;;;;;17.30;98.80;;;;;;4899889;29;19974;-89
2022/03/27 14:15:39;;;;;;;;;;;17.70;98.20;;;;;;4916270;29;19966;-89
2022/03/27 14:18:11;;;;;;;;;;;18.00;99.90;;;;;;4938051;23;19933;-90
2022/03/27 14:20:45;;;;;;;;;;;17.70;97.10;;;;;;4936924;29;20013;-89
2022/03/27 14:23:14;;;;;;;;;;;17.90;97.40;;;;;;4920795;29;19927;-89
2022/03/27 14:25:44;;;;;;;;;;;17.80;98.30;;;;;;4918111;29;19934;-88
2022/03/27 14:28:12;;;;;;;;;;;17.90;99.10;;;;;;4906983;29;20335;-88
2022/03/27 14:30:44;;;;;;;;;;;18.00;98.60;;;;;;4917862;29;20105;-89
2022/03/27 14:33:10;;;;;;;;;;;18.10;97.40;;;;;;4898812;29;19923;-88
2022/03/27 14:35:42;;;;;;;;;;;18.00;97.90;;;;;;4899773;29;20373;-89
2022/03/27 14:38:14;;;;;;;;;;;18.40;97.60;;;;;;4899636;29;19930;-89
2022/03/27 14:40:56;;;;;;;;;;;17.90;96.80;;;;;;4899107;29;20386;-86
2022/03/27 14:43:33;;;;;;;;;;;17.80;98.00;;;;;;4916850;29;20291;-86
2022/03/27 14:46:13;;;;;;;;;;;18.00;98.40;;;;;;4916801;29;19923;-86
2022/03/27 14:48:39;;;;;;;;;;;17.90;96.90;;;;;;4899477;29;19975;-86
2022/03/27 14:51:04;;;;;;;;;;;18.60;98.90;;;;;;4913467;29;20339;-87
2022/03/27 14:53:31;;;;;;;;;;;17.60;98.40;;;;;;4915708;29;20493;-86
2022/03/27 14:56:00;;;;;;;;;;;17.90;96.20;;;;;;4916803;29;19970;-85
2022/03/27 14:58:26;;;;;;;;;;;18.40;97.20;;;;;;4900099;29;19923;-85
2022/03/27 15:00:52;;;;;;;;;;;18.00;96.90;;;;;;4916255;29;19927;-85
2022/03/27 15:03:18;;;;;;;;;;;18.00;96.50;;;;;;4916422;29;19934;-86
2022/03/27 15:05:44;;;;;;;;;;;17.90;97.70;;;;;;4916897;29;19969;-85
2022/03/27 15:08:12;;;;;;;;;;;18.40;97.20;;;;;;4899357;29;20015;-86
2022/03/27 15:10:39;;;;;;;;;;;17.90;96.40;;;;;;4917026;29;20336;-85
2022/03/27 15:13:04;;;;;;;;;;;16.60;95.90;;;;;;4899527;29;20295;-85
2022/03/27 15:15:36;;;;;;;;;;;17.50;96.80;;;;;;4916779;29;19934;-87
2022/03/27 15:18:07;;;;;;;;;;;17.40;96.40;;;;;;4920785;29;20426;-90
2022/03/27 15:20:39;;;;;;;;;;;17.60;97.00;;;;;;4920322;29;20379;-88
2022/03/27 15:23:14;;;;;;;;;;;17.50;96.70;;;;;;4903076;29;19994;-87
2022/03/27 15:25:46;;;;;;;;;;;17.40;95.40;;;;;;4903482;29;20371;-85
2022/03/27 15:28:11;;;;;;;;;;;17.40;95.90;;;;;;4920031;29;20377;-84
2022/03/27 15:30:37;;;;;;;;;;;17.10;96.30;;;;;;4919995;29;20404;-85
2022/03/27 15:33:13;;;;;;;;;;;17.90;96.30;;;;;;4903966;29;19930;-86
2022/03/27 15:35:39;;;;;;;;;;;17.60;96.20;;;;;;4920228;29;19930;-85
2022/03/27 15:38:04;;;;;;;;;;;17.60;95.40;;;;;;4903020;29;19923;-86